Time;durP1;ratioP1;P1;durP2;ratioP2;P2;SDS_P1;SDS_P2;PMS_P1;PMS_P2;Temp;Humidity;BMP_temperature;BMP_pressure;BME280_temperature;BME280_humidity;BME280_pressure;Samples;Min_cycle;Max_cycle;Signal;HPM_P1;HPM_P2
2022/05/15 00:01:15;;;;;;;6.35;3.40;;;;;;;;;;4951956;28;20095;-62
2022/05/15 00:03:41;;;;;;;8.40;3.33;;;;;;;;;;4951347;28;20120;-62
2022/05/15 00:06:06;;;;;;;6.03;3.35;;;;;;;;;;4951485;28;20551;-63
2022/05/15 00:08:33;;;;;;;7.03;3.28;;;;;;;;;;4951158;28;20101;-62
2022/05/15 00:11:01;;;;;;;5.72;2.67;;;;;;;;;;4951030;28;20362;-61
2022/05/15 00:13:27;;;;;;;7.22;3.33;;;;;;;;;;4951813;28;20350;-62
2022/05/15 00:15:53;;;;;;;6.28;3.28;;;;;;;;;;4950793;28;20409;-63
2022/05/15 00:18:20;;;;;;;9.32;3.05;;;;;;;;;;4951287;28;20445;-63
2022/05/15 00:20:45;;;;;;;5.88;2.75;;;;;;;;;;4950337;28;20421;-64
2022/05/15 00:23:11;;;;;;;5.22;2.72;;;;;;;;;;4951000;28;20481;-62
2022/05/15 00:25:37;;;;;;;6.32;3.10;;;;;;;;;;4950738;28;20037;-61
2022/05/15 00:28:02;;;;;;;6.40;3.33;;;;;;;;;;4951251;28;20361;-62
2022/05/15 00:30:28;;;;;;;6.75;2.75;;;;;;;;;;4951109;28;20357;-62
2022/05/15 00:32:53;;;;;;;6.00;3.45;;;;;;;;;;4950772;28;20060;-62
2022/05/15 00:35:19;;;;;;;7.80;2.92;;;;;;;;;;4950505;28;20446;-62
2022/05/15 00:37:44;;;;;;;4.80;3.00;;;;;;;;;;4951354;28;20425;-61
2022/05/15 00:40:12;;;;;;;5.68;3.25;;;;;;;;;;4950548;28;20476;-63
2022/05/15 00:42:37;;;;;;;7.03;3.13;;;;;;;;;;4950342;28;20353;-63
2022/05/15 00:45:04;;;;;;;5.82;3.63;;;;;;;;;;4951060;28;20342;-62
2022/05/15 00:47:29;;;;;;;4.22;2.67;;;;;;;;;;4950682;28;20418;-62
2022/05/15 00:49:55;;;;;;;6.80;3.00;;;;;;;;;;4950633;28;20116;-62
2022/05/15 00:52:26;;;;;;;6.72;3.13;;;;;;;;;;4950334;28;20330;-62
2022/05/15 00:54:55;;;;;;;9.75;3.80;;;;;;;;;;4950566;28;20429;-62
2022/05/15 00:57:22;;;;;;;5.75;3.15;;;;;;;;;;4933127;28;20105;-63
2022/05/15 01:00:08;;;;;;;12.85;3.45;;;;;;;;;;4948034;28;20535;-62
2022/05/15 01:02:40;;;;;;;8.00;3.20;;;;;;;;;;4946891;28;20444;-62
2022/05/15 01:05:07;;;;;;;7.15;3.35;;;;;;;;;;4950272;28;20567;-62
2022/05/15 01:07:32;;;;;;;9.68;3.72;;;;;;;;;;4950155;28;20033;-61
2022/05/15 01:09:59;;;;;;;6.88;2.95;;;;;;;;;;4950287;28;20025;-63
2022/05/15 01:12:25;;;;;;;5.97;3.20;;;;;;;;;;4950252;28;20403;-62
2022/05/15 01:14:51;;;;;;;7.07;3.47;;;;;;;;;;4933311;28;20030;-62
2022/05/15 01:17:16;;;;;;;7.15;3.33;;;;;;;;;;4950694;28;20349;-62
2022/05/15 01:19:43;;;;;;;7.28;3.15;;;;;;;;;;4949765;28;20465;-62
2022/05/15 01:22:10;;;;;;;10.90;3.65;;;;;;;;;;4950254;28;20340;-62
2022/05/15 01:24:35;;;;;;;5.47;3.47;;;;;;;;;;4950608;28;20349;-66
2022/05/15 01:27:05;;;;;;;6.32;3.35;;;;;;;;;;4950074;28;20371;-62
2022/05/15 01:29:33;;;;;;;7.15;3.78;;;;;;;;;;4950079;28;20456;-62
2022/05/15 01:32:00;;;;;;;7.50;3.65;;;;;;;;;;4938199;28;20400;-63
2022/05/15 01:34:25;;;;;;;6.82;2.72;;;;;;;;;;4950771;28;20382;-62
2022/05/15 01:36:52;;;;;;;6.18;3.45;;;;;;;;;;4950067;28;20354;-62
2022/05/15 01:39:18;;;;;;;6.70;2.80;;;;;;;;;;4950034;28;20465;-62
2022/05/15 01:41:43;;;;;;;7.53;3.33;;;;;;;;;;4951008;28;20499;-62
2022/05/15 01:44:08;;;;;;;5.57;2.80;;;;;;;;;;4949401;28;20462;-62
2022/05/15 01:46:34;;;;;;;5.55;2.88;;;;;;;;;;4950036;28;20421;-62
2022/05/15 01:49:02;;;;;;;4.78;3.42;;;;;;;;;;4950135;28;20425;-63
2022/05/15 01:51:28;;;;;;;6.78;3.38;;;;;;;;;;4949816;28;20492;-63
2022/05/15 01:53:53;;;;;;;9.20;3.03;;;;;;;;;;4951631;28;20368;-63
2022/05/15 01:56:18;;;;;;;6.45;3.15;;;;;;;;;;4953754;28;20436;-61
2022/05/15 01:58:44;;;;;;;4.85;3.08;;;;;;;;;;4953866;28;20026;-63
2022/05/15 02:01:09;;;;;;;5.43;2.80;;;;;;;;;;4954147;28;20345;-62
2022/05/15 02:03:35;;;;;;;6.57;3.67;;;;;;;;;;4953742;28;20426;-62
2022/05/15 02:06:01;;;;;;;6.35;3.20;;;;;;;;;;4953163;28;20361;-63
2022/05/15 02:08:32;;;;;;;7.40;3.40;;;;;;;;;;4953654;28;20445;-63
2022/05/15 02:10:58;;;;;;;4.20;2.63;;;;;;;;;;4953059;28;20350;-62
2022/05/15 02:13:23;;;;;;;4.38;2.75;;;;;;;;;;4953552;28;20831;-62
2022/05/15 02:15:49;;;;;;;5.28;2.80;;;;;;;;;;4954766;28;20349;-63
2022/05/15 02:18:14;;;;;;;7.50;3.28;;;;;;;;;;4953296;28;20022;-63
2022/05/15 02:20:39;;;;;;;7.15;3.13;;;;;;;;;;4953742;28;20441;-62
2022/05/15 02:23:05;;;;;;;7.47;3.47;;;;;;;;;;4953687;28;20406;-63
2022/05/15 02:25:31;;;;;;;6.97;3.28;;;;;;;;;;4953692;28;20455;-62
2022/05/15 02:27:57;;;;;;;8.68;2.78;;;;;;;;;;4954551;28;20392;-62
2022/05/15 02:30:23;;;;;;;7.40;3.15;;;;;;;;;;4953856;28;20380;-62
2022/05/15 02:32:50;;;;;;;6.05;3.00;;;;;;;;;;4952854;28;20033;-62
2022/05/15 02:35:16;;;;;;;4.78;2.67;;;;;;;;;;4954396;28;20125;-62
2022/05/15 02:37:41;;;;;;;6.45;2.80;;;;;;;;;;4953175;28;20057;-62
2022/05/15 02:40:08;;;;;;;8.95;3.50;;;;;;;;;;4953301;28;20128;-63
2022/05/15 02:42:33;;;;;;;4.82;2.90;;;;;;;;;;4953052;28;20034;-63
2022/05/15 02:44:58;;;;;;;5.05;2.85;;;;;;;;;;4952800;28;20429;-62
2022/05/15 02:47:24;;;;;;;9.27;2.78;;;;;;;;;;4952915;28;20510;-62
2022/05/15 02:52:33;;;;;;;7.43;2.78;;;;;;;;;;4952601;28;20385;-62
2022/05/15 02:54:58;;;;;;;5.57;3.13;;;;;;;;;;4953058;28;20420;-62
2022/05/15 02:57:24;;;;;;;5.20;2.88;;;;;;;;;;4952662;28;20357;-63
2022/05/15 02:59:49;;;;;;;7.45;2.85;;;;;;;;;;4952989;28;20429;-62
2022/05/15 03:02:14;;;;;;;5.50;3.08;;;;;;;;;;4952450;28;20441;-63
2022/05/15 03:04:40;;;;;;;7.18;3.00;;;;;;;;;;4952268;28;20557;-62
2022/05/15 03:07:05;;;;;;;4.82;2.70;;;;;;;;;;4953851;28;20433;-62
2022/05/15 03:09:31;;;;;;;5.43;2.70;;;;;;;;;;4952800;28;20055;-62
2022/05/15 03:11:56;;;;;;;3.95;2.90;;;;;;;;;;4952365;28;20380;-63
2022/05/15 03:14:22;;;;;;;6.05;2.88;;;;;;;;;;4952275;28;20374;-63
2022/05/15 03:16:47;;;;;;;7.35;3.10;;;;;;;;;;4952330;28;20479;-62
2022/05/15 03:19:12;;;;;;;6.00;2.85;;;;;;;;;;4952066;28;20026;-62
2022/05/15 03:21:38;;;;;;;7.53;3.67;;;;;;;;;;4952249;28;20457;-62
2022/05/15 03:24:07;;;;;;;4.90;2.92;;;;;;;;;;4952549;28;20048;-63
2022/05/15 03:26:38;;;;;;;5.30;2.88;;;;;;;;;;4952194;28;20402;-62
2022/05/15 03:29:05;;;;;;;4.78;2.67;;;;;;;;;;4951977;28;20390;-62
2022/05/15 03:31:30;;;;;;;6.45;2.97;;;;;;;;;;4951965;28;20416;-63
2022/05/15 03:33:56;;;;;;;6.13;3.22;;;;;;;;;;4952966;28;20534;-63
2022/05/15 03:36:21;;;;;;;4.45;2.20;;;;;;;;;;4951867;28;20418;-62
2022/05/15 03:38:47;;;;;;;5.43;2.95;;;;;;;;;;4951863;28;20052;-62
2022/05/15 03:41:13;;;;;;;6.57;2.80;;;;;;;;;;4951657;28;20507;-62
2022/05/15 03:43:39;;;;;;;6.60;3.25;;;;;;;;;;4952194;28;20478;-62
2022/05/15 03:46:05;;;;;;;7.00;3.38;;;;;;;;;;4951715;28;20422;-63
2022/05/15 03:48:31;;;;;;;6.40;3.15;;;;;;;;;;4951894;28;20508;-62
2022/05/15 03:50:56;;;;;;;5.97;3.15;;;;;;;;;;4951596;28;20326;-61
2022/05/15 03:53:23;;;;;;;6.35;2.88;;;;;;;;;;4951082;28;20525;-62
2022/05/15 03:55:49;;;;;;;4.22;2.85;;;;;;;;;;4952032;28;20468;-62
2022/05/15 03:58:14;;;;;;;6.70;3.03;;;;;;;;;;4951425;28;20377;-61
2022/05/15 04:00:41;;;;;;;4.78;2.42;;;;;;;;;;4952380;28;20444;-63
2022/05/15 04:03:07;;;;;;;6.63;3.20;;;;;;;;;;4951694;28;20325;-62
2022/05/15 04:05:32;;;;;;;8.45;3.05;;;;;;;;;;4951179;28;20343;-62
2022/05/15 04:07:58;;;;;;;5.53;3.35;;;;;;;;;;4952473;28;20497;-62
2022/05/15 04:10:25;;;;;;;5.03;3.30;;;;;;;;;;4951115;28;20384;-62
2022/05/15 04:12:51;;;;;;;9.13;4.03;;;;;;;;;;4951209;28;20368;-63
2022/05/15 04:15:16;;;;;;;6.07;3.15;;;;;;;;;;4951048;28;20350;-62
2022/05/15 04:17:49;;;;;;;4.78;3.42;;;;;;;;;;4950375;28;20508;-63
2022/05/15 04:20:17;;;;;;;6.57;3.45;;;;;;;;;;4950570;28;20461;-62
2022/05/15 04:22:42;;;;;;;6.32;3.20;;;;;;;;;;4951787;28;20406;-62
2022/05/15 04:25:10;;;;;;;6.13;3.25;;;;;;;;;;4951425;28;20328;-62
2022/05/15 04:27:36;;;;;;;5.60;3.15;;;;;;;;;;4951199;28;20397;-63
2022/05/15 04:30:01;;;;;;;6.78;3.63;;;;;;;;;;4950743;28;20409;-62
2022/05/15 04:32:28;;;;;;;7.68;3.60;;;;;;;;;;4951041;28;20052;-62
2022/05/15 04:34:53;;;;;;;6.85;3.20;;;;;;;;;;4950647;28;20065;-63
2022/05/15 04:37:19;;;;;;;7.05;4.07;;;;;;;;;;4951531;28;20137;-62
2022/05/15 04:39:44;;;;;;;7.65;3.67;;;;;;;;;;4950879;28;20026;-61
2022/05/15 04:42:09;;;;;;;6.70;3.63;;;;;;;;;;4950847;28;20361;-61
2022/05/15 04:44:35;;;;;;;6.10;3.70;;;;;;;;;;4951186;28;20330;-62
2022/05/15 04:47:00;;;;;;;5.20;3.00;;;;;;;;;;4950693;28;20491;-61
2022/05/15 04:49:25;;;;;;;5.70;3.33;;;;;;;;;;4950556;28;20033;-62
2022/05/15 04:51:51;;;;;;;5.43;3.35;;;;;;;;;;4950260;28;20409;-63
2022/05/15 04:54:16;;;;;;;5.05;3.20;;;;;;;;;;4950797;28;20491;-62
2022/05/15 04:56:41;;;;;;;5.68;3.28;;;;;;;;;;4950812;28;20430;-62
2022/05/15 04:59:07;;;;;;;5.55;3.25;;;;;;;;;;4950660;28;20341;-62
2022/05/15 05:01:32;;;;;;;7.25;3.10;;;;;;;;;;4932605;28;20500;-63
2022/05/15 05:03:58;;;;;;;6.10;3.25;;;;;;;;;;4950622;28;20430;-61
2022/05/15 05:06:24;;;;;;;4.43;2.80;;;;;;;;;;4950721;28;20498;-62
2022/05/15 05:08:49;;;;;;;4.43;3.30;;;;;;;;;;4950069;28;20353;-63
2022/05/15 05:11:15;;;;;;;8.00;3.20;;;;;;;;;;4950349;28;20315;-62
2022/05/15 05:13:41;;;;;;;5.40;2.88;;;;;;;;;;4950079;28;20033;-63
2022/05/15 05:16:06;;;;;;;6.68;3.53;;;;;;;;;;4949966;28;20440;-63
2022/05/15 05:18:32;;;;;;;3.90;2.85;;;;;;;;;;4950039;28;20370;-62
2022/05/15 05:20:57;;;;;;;4.65;2.83;;;;;;;;;;4949618;28;20544;-62
2022/05/15 05:23:22;;;;;;;7.10;3.35;;;;;;;;;;4950057;28;20049;-61
2022/05/15 05:25:48;;;;;;;6.28;3.00;;;;;;;;;;4951427;28;20093;-62
2022/05/15 05:28:15;;;;;;;5.38;3.13;;;;;;;;;;4948829;28;20585;-62
2022/05/15 05:30:40;;;;;;;6.07;3.22;;;;;;;;;;4950981;28;20437;-63
2022/05/15 05:33:06;;;;;;;4.95;2.60;;;;;;;;;;4949492;28;20440;-62
2022/05/15 05:35:32;;;;;;;4.72;3.08;;;;;;;;;;4950198;28;20344;-62
2022/05/15 05:37:57;;;;;;;4.25;3.00;;;;;;;;;;4950022;28;20484;-63
2022/05/15 05:40:23;;;;;;;4.25;3.05;;;;;;;;;;4950363;28;20571;-64
2022/05/15 05:42:48;;;;;;;6.55;2.83;;;;;;;;;;4950013;28;20541;-62
2022/05/15 05:45:14;;;;;;;6.80;3.08;;;;;;;;;;4949996;28;20444;-62
2022/05/15 05:47:39;;;;;;;6.63;3.15;;;;;;;;;;4949790;28;20056;-63
2022/05/15 05:50:08;;;;;;;6.00;2.92;;;;;;;;;;4949610;28;20337;-62
2022/05/15 05:52:34;;;;;;;;;;;;;;;;;;4951447;28;20382;-62
2022/05/15 05:54:59;;;;;;;4.93;3.03;;;;;;;;;;4949525;28;20299;-64
2022/05/15 05:57:25;;;;;;;4.43;2.60;;;;;;;;;;4949934;28;20458;-62
2022/05/15 05:59:50;;;;;;;5.97;2.83;;;;;;;;;;4949715;28;20052;-62
2022/05/15 06:02:16;;;;;;;4.57;3.03;;;;;;;;;;4949891;28;20333;-63
2022/05/15 06:04:44;;;;;;;4.63;2.75;;;;;;;;;;4949574;28;20475;-62
2022/05/15 06:07:12;;;;;;;5.32;2.90;;;;;;;;;;4950845;28;20428;-62
2022/05/15 06:09:43;;;;;;;8.73;3.73;;;;;;;;;;4949421;28;20823;-62
2022/05/15 06:12:09;;;;;;;4.32;2.47;;;;;;;;;;4949719;28;20727;-63
2022/05/15 06:14:35;;;;;;;3.78;2.80;;;;;;;;;;4949250;28;20416;-62
2022/05/15 06:17:00;;;;;;;8.15;2.35;;;;;;;;;;4950782;28;20519;-62
2022/05/15 06:19:25;;;;;;;4.28;2.53;;;;;;;;;;4949298;28;20490;-62
2022/05/15 06:21:51;;;;;;;6.60;2.75;;;;;;;;;;4949230;28;20389;-62
2022/05/15 06:24:16;;;;;;;6.72;3.58;;;;;;;;;;4949436;28;20396;-61
2022/05/15 06:26:41;;;;;;;4.85;2.90;;;;;;;;;;4949362;28;20453;-62
2022/05/15 06:29:07;;;;;;;5.38;2.72;;;;;;;;;;4949680;28;20441;-62
2022/05/15 06:31:32;;;;;;;5.25;2.63;;;;;;;;;;4949346;28;20397;-62
2022/05/15 06:33:57;;;;;;;5.60;2.65;;;;;;;;;;4949416;28;20437;-61
2022/05/15 06:36:23;;;;;;;6.82;3.13;;;;;;;;;;4951239;28;20763;-63
2022/05/15 06:38:48;;;;;;;6.22;2.95;;;;;;;;;;4950027;28;20412;-62
2022/05/15 06:41:13;;;;;;;4.60;2.90;;;;;;;;;;4952937;28;20445;-62
2022/05/15 06:43:39;;;;;;;7.55;2.97;;;;;;;;;;4952853;28;20425;-63
2022/05/15 06:46:04;;;;;;;5.32;2.60;;;;;;;;;;4953437;28;20353;-62
2022/05/15 06:48:29;;;;;;;4.72;2.75;;;;;;;;;;4953045;28;20410;-61
2022/05/15 06:50:55;;;;;;;4.88;2.47;;;;;;;;;;4952666;28;20052;-61
2022/05/15 06:53:20;;;;;;;5.15;2.72;;;;;;;;;;4952537;28;20464;-62
2022/05/15 06:58:29;;;;;;;3.90;2.35;;;;;;;;;;4953671;28;20061;-62
2022/05/15 07:00:54;;;;;;;5.45;2.50;;;;;;;;;;4952493;28;20459;-61
2022/05/15 07:03:20;;;;;;;5.05;2.63;;;;;;;;;;4952884;28;20524;-62
2022/05/15 07:05:45;;;;;;;3.60;2.30;;;;;;;;;;4952316;28;20512;-62
2022/05/15 07:08:11;;;;;;;6.20;2.60;;;;;;;;;;4953732;28;20504;-63
2022/05/15 07:10:37;;;;;;;6.57;2.60;;;;;;;;;;4952462;28;20045;-64
2022/05/15 07:13:02;;;;;;;5.22;2.60;;;;;;;;;;4952512;28;20038;-62
2022/05/15 07:15:29;;;;;;;7.70;2.72;;;;;;;;;;4952306;28;20421;-62
2022/05/15 07:17:54;;;;;;;4.00;2.30;;;;;;;;;;4952554;28;20341;-62
2022/05/15 07:20:20;;;;;;;4.85;2.80;;;;;;;;;;4952213;28;20347;-61
2022/05/15 07:22:45;;;;;;;4.60;2.42;;;;;;;;;;4952200;28;20543;-62
2022/05/15 07:25:10;;;;;;;5.80;2.47;;;;;;;;;;4951897;28;20523;-62
2022/05/15 07:27:36;;;;;;;4.28;3.08;;;;;;;;;;4952452;28;20417;-62
2022/05/15 07:30:02;;;;;;;3.63;2.30;;;;;;;;;;4951980;28;20391;-62
2022/05/15 07:32:27;;;;;;;5.30;2.58;;;;;;;;;;4951647;28;20495;-62
2022/05/15 07:34:53;;;;;;;5.63;2.45;;;;;;;;;;4952134;28;20370;-62
2022/05/15 07:37:18;;;;;;;4.82;2.28;;;;;;;;;;4951783;28;20496;-62
2022/05/15 07:39:44;;;;;;;5.78;2.67;;;;;;;;;;4952409;28;20475;-61
2022/05/15 07:42:10;;;;;;;6.38;2.70;;;;;;;;;;4952065;28;20405;-63
2022/05/15 07:44:35;;;;;;;2.65;2.00;;;;;;;;;;4951831;28;20052;-62
2022/05/15 07:47:01;;;;;;;4.18;2.03;;;;;;;;;;4952191;28;20030;-63
2022/05/15 07:49:26;;;;;;;5.43;2.60;;;;;;;;;;4952070;28;20468;-62
2022/05/15 07:51:52;;;;;;;6.32;2.40;;;;;;;;;;4950718;28;20449;-62
2022/05/15 07:54:18;;;;;;;3.67;2.00;;;;;;;;;;4951255;28;20382;-63
2022/05/15 07:56:44;;;;;;;3.90;2.17;;;;;;;;;;4951581;28;20481;-62
2022/05/15 07:59:11;;;;;;;4.82;2.47;;;;;;;;;;4951816;28;20326;-62
2022/05/15 08:01:37;;;;;;;3.50;2.20;;;;;;;;;;4951107;28;20455;-61
2022/05/15 08:04:02;;;;;;;4.13;2.25;;;;;;;;;;4952437;28;20417;-63
2022/05/15 08:09:12;;;;;;;3.50;2.20;;;;;;;;;;4952304;28;20144;-62
2022/05/15 08:11:37;;;;;;;4.78;2.03;;;;;;;;;;4951505;28;20034;-62
2022/05/15 08:14:06;;;;;;;6.25;2.42;;;;;;;;;;4952121;28;20413;-61
2022/05/15 08:16:35;;;;;;;3.10;1.70;;;;;;;;;;4951248;28;20329;-61
2022/05/15 08:24:36;;;;;;;2.88;2.03;;;;;;;;;;4901535;28;20064;-63
2022/05/15 08:27:01;;;;;;;3.95;2.45;;;;;;;;;;4931510;28;20030;-62
2022/05/15 08:29:27;;;;;;;4.72;2.60;;;;;;;;;;4931164;28;20430;-62
2022/05/15 08:31:52;;;;;;;3.85;2.20;;;;;;;;;;4932348;28;20365;-62
2022/05/15 08:34:17;;;;;;;3.78;2.25;;;;;;;;;;4931370;28;20117;-62
2022/05/15 08:36:44;;;;;;;3.65;1.77;;;;;;;;;;4931488;28;20027;-62
2022/05/15 08:39:13;;;;;;;3.30;1.80;;;;;;;;;;4931618;28;20426;-61
2022/05/15 08:41:45;;;;;;;5.63;2.45;;;;;;;;;;4932059;28;20494;-61
2022/05/15 08:44:22;;;;;;;5.18;2.33;;;;;;;;;;4932138;28;20370;-61
2022/05/15 08:47:01;;;;;;;4.35;1.83;;;;;;;;;;4931301;28;20434;-62
2022/05/15 08:49:27;;;;;;;5.32;2.30;;;;;;;;;;4931341;28;20446;-62
2022/05/15 08:51:59;;;;;;;3.80;2.25;;;;;;;;;;4913940;28;20438;-63
2022/05/15 08:54:26;;;;;;;3.53;1.88;;;;;;;;;;4932106;28;20423;-62
2022/05/15 08:56:52;;;;;;;4.60;2.17;;;;;;;;;;4931151;28;20480;-62
2022/05/15 08:59:31;;;;;;;5.13;2.30;;;;;;;;;;4913442;28;20346;-62
2022/05/15 09:01:58;;;;;;;3.45;1.70;;;;;;;;;;4931720;28;20058;-63
2022/05/15 09:04:25;;;;;;;4.35;1.95;;;;;;;;;;4930802;28;20157;-61
2022/05/15 09:06:50;;;;;;;5.40;2.00;;;;;;;;;;4930974;28;20379;-62
2022/05/15 09:09:35;;;;;;;3.95;1.83;;;;;;;;;;4930796;28;20428;-62
2022/05/15 09:12:12;;;;;;;3.85;1.63;;;;;;;;;;4930968;28;20518;-62
2022/05/15 09:14:42;;;;;;;4.82;1.65;;;;;;;;;;4930276;28;20390;-62
2022/05/15 09:17:18;;;;;;;3.03;1.63;;;;;;;;;;4913375;28;20469;-62
2022/05/15 09:19:45;;;;;;;5.50;1.95;;;;;;;;;;4935797;28;20365;-62
2022/05/15 09:22:12;;;;;;;3.40;1.63;;;;;;;;;;4950449;28;20433;-61
2022/05/15 09:24:41;;;;;;;5.55;1.60;;;;;;;;;;4932739;28;20348;-62
2022/05/15 09:27:12;;;;;;;5.88;2.08;;;;;;;;;;4932111;28;20423;-62
2022/05/15 09:29:37;;;;;;;3.97;2.00;;;;;;;;;;4949951;28;20448;-62
2022/05/15 09:32:06;;;;;;;5.78;1.63;;;;;;;;;;4949958;28;20421;-62
2022/05/15 09:34:35;;;;;;;2.73;1.80;;;;;;;;;;4949711;28;20437;-63
2022/05/15 09:39:49;;;;;;;6.78;2.00;;;;;;;;;;4950863;28;20449;-62
2022/05/15 09:44:58;;;;;;;2.47;1.48;;;;;;;;;;4950439;28;20361;-61
2022/05/15 09:47:36;;;;;;;3.03;1.50;;;;;;;;;;4951345;28;20337;-63
2022/05/15 09:50:03;;;;;;;6.03;1.70;;;;;;;;;;4950020;28;20456;-61
2022/05/15 09:52:41;;;;;;;1.75;1.27;;;;;;;;;;4950996;28;20400;-62
2022/05/15 09:55:13;;;;;;;5.25;1.52;;;;;;;;;;4932410;28;20034;-62
2022/05/15 09:58:01;;;;;;;3.08;1.52;;;;;;;;;;4949712;28;20097;-62
2022/05/15 10:00:31;;;;;;;5.85;2.10;;;;;;;;;;4950545;28;20362;-61
2022/05/15 10:03:03;;;;;;;4.88;1.70;;;;;;;;;;4949387;28;20456;-63
2022/05/15 10:05:34;;;;;;;3.58;1.83;;;;;;;;;;4949525;28;20469;-62
2022/05/15 10:08:03;;;;;;;1.98;1.20;;;;;;;;;;4931998;28;20457;-63
2022/05/15 10:10:46;;;;;;;4.03;1.40;;;;;;;;;;4949433;28;20034;-62
2022/05/15 10:13:42;;;;;;;3.65;1.33;;;;;;;;;;4932285;28;20426;-61
2022/05/15 10:16:17;;;;;;;3.50;1.50;;;;;;;;;;4935453;28;20413;-62
2022/05/15 10:18:47;;;;;;;5.30;1.70;;;;;;;;;;4954593;28;20336;-62
2022/05/15 10:21:14;;;;;;;4.72;1.88;;;;;;;;;;4953549;28;20464;-63
2022/05/15 10:23:49;;;;;;;3.25;1.50;;;;;;;;;;4935878;28;20049;-65
2022/05/15 10:26:20;;;;;;;3.47;1.48;;;;;;;;;;4936095;28;20453;-62
2022/05/15 10:29:16;;;;;;;2.67;1.13;;;;;;;;;;4953233;28;20437;-61
2022/05/15 10:31:52;;;;;;;3.47;1.30;;;;;;;;;;4934542;28;20349;-62
2022/05/15 10:34:22;;;;;;;1.80;1.10;;;;;;;;;;4935634;28;20492;-63
2022/05/15 10:37:03;;;;;;;3.08;1.38;;;;;;;;;;4936197;28;20108;-62
2022/05/15 10:40:06;;;;;;;2.50;1.48;;;;;;;;;;4952850;28;20053;-62
2022/05/15 10:43:02;;;;;;;2.50;1.40;;;;;;;;;;4952971;28;20344;-62
2022/05/15 10:45:37;;;;;;;2.25;1.20;;;;;;;;;;4935422;28;20465;-62
2022/05/15 10:48:27;;;;;;;3.17;1.65;;;;;;;;;;4935260;28;20650;-62
2022/05/15 10:51:18;;;;;;;4.72;1.17;;;;;;;;;;4953563;28;20417;-63
2022/05/15 10:57:29;;;;;;;1.80;1.20;;;;;;;;;;4952813;28;20417;-63
2022/05/15 11:00:03;;;;;;;2.67;1.35;;;;;;;;;;4952709;28;20398;-64
2022/05/15 11:02:53;;;;;;;2.08;1.45;;;;;;;;;;4952497;28;20515;-62
2022/05/15 11:05:44;;;;;;;2.08;1.00;;;;;;;;;;4952410;28;20398;-63
2022/05/15 11:08:21;;;;;;;2.80;1.10;;;;;;;;;;4952998;28;20532;-63
2022/05/15 11:10:56;;;;;;;3.33;1.20;;;;;;;;;;4952877;28;20446;-62
2022/05/15 11:13:34;;;;;;;2.10;1.10;;;;;;;;;;4934883;28;20327;-62
2022/05/15 11:16:26;;;;;;;3.00;1.00;;;;;;;;;;4952315;28;20366;-62
2022/05/15 11:19:22;;;;;;;2.65;1.25;;;;;;;;;;4951990;28;20076;-62
2022/05/15 11:22:03;;;;;;;1.38;1.00;;;;;;;;;;4918089;28;20442;-62
2022/05/15 11:24:44;;;;;;;3.40;1.02;;;;;;;;;;4933314;28;20382;-63
2022/05/15 11:27:18;;;;;;;4.03;1.58;;;;;;;;;;4916095;28;20377;-63
2022/05/15 11:29:48;;;;;;;2.10;1.48;;;;;;;;;;4915496;28;20418;-62
2022/05/15 11:32:46;;;;;;;1.55;1.05;;;;;;;;;;4931065;28;20521;-63
2022/05/15 11:35:17;;;;;;;3.10;0.90;;;;;;;;;;4910556;28;20362;-63
2022/05/15 11:37:51;;;;;;;1.75;0.88;;;;;;;;;;4932590;28;20327;-63
2022/05/15 11:40:34;;;;;;;2.60;0.80;;;;;;;;;;4933121;28;20366;-62
2022/05/15 11:43:17;;;;;;;1.33;1.00;;;;;;;;;;4932758;28;20038;-62
2022/05/15 11:45:49;;;;;;;1.80;0.88;;;;;;;;;;4931316;28;20105;-63
2022/05/15 11:48:27;;;;;;;1.65;0.80;;;;;;;;;;4932831;28;20445;-62
2022/05/15 11:50:55;;;;;;;1.60;0.85;;;;;;;;;;4933219;28;20445;-63
2022/05/15 11:53:32;;;;;;;1.60;1.00;;;;;;;;;;4933317;28;20413;-62
2022/05/15 11:55:59;;;;;;;1.20;0.70;;;;;;;;;;4930693;28;20469;-62
2022/05/15 11:58:33;;;;;;;0.90;0.60;;;;;;;;;;4931613;28;20546;-62
2022/05/15 12:01:13;;;;;;;1.35;0.85;;;;;;;;;;4931792;28;20443;-63
2022/05/15 12:03:38;;;;;;;2.05;1.05;;;;;;;;;;4932478;28;20545;-62
2022/05/15 12:06:05;;;;;;;1.25;0.93;;;;;;;;;;4932944;28;20346;-62
2022/05/15 12:08:33;;;;;;;1.67;0.77;;;;;;;;;;4931922;28;20140;-62
2022/05/15 12:11:13;;;;;;;1.60;0.90;;;;;;;;;;4932928;28;20410;-63
2022/05/15 12:13:40;;;;;;;1.15;0.70;;;;;;;;;;4931649;28;20057;-63
2022/05/15 12:16:34;;;;;;;3.25;1.10;;;;;;;;;;4933538;28;20034;-63
2022/05/15 12:19:20;;;;;;;1.45;0.85;;;;;;;;;;4913630;28;20418;-63
2022/05/15 12:21:48;;;;;;;1.50;0.85;;;;;;;;;;4914605;28;20382;-62
2022/05/15 12:24:29;;;;;;;1.50;0.70;;;;;;;;;;4914149;28;20458;-63
2022/05/15 12:27:03;;;;;;;1.20;0.85;;;;;;;;;;4931686;28;20357;-62
2022/05/15 12:29:47;;;;;;;1.45;0.93;;;;;;;;;;4913860;28;20449;-63
2022/05/15 12:32:21;;;;;;;0.90;0.63;;;;;;;;;;4931773;28;20030;-64
2022/05/15 12:34:49;;;;;;;2.83;0.90;;;;;;;;;;4913895;28;20476;-62
2022/05/15 12:37:23;;;;;;;0.80;0.65;;;;;;;;;;4914227;28;20552;-63
2022/05/15 12:39:51;;;;;;;2.20;0.90;;;;;;;;;;4914244;28;20364;-63
2022/05/15 12:42:39;;;;;;;2.28;0.77;;;;;;;;;;4931874;28;20373;-62
2022/05/15 12:45:13;;;;;;;2.70;1.17;;;;;;;;;;4932520;28;20438;-63
2022/05/15 12:47:40;;;;;;;1.25;0.77;;;;;;;;;;4931712;28;20426;-61
2022/05/15 12:50:20;;;;;;;1.38;0.80;;;;;;;;;;4913765;28;20481;-62
2022/05/15 12:52:52;;;;;;;1.50;0.70;;;;;;;;;;4931576;28;20480;-62
2022/05/15 12:55:31;;;;;;;3.05;0.85;;;;;;;;;;4931426;28;20569;-62
2022/05/15 12:57:58;;;;;;;1.05;0.80;;;;;;;;;;4931440;28;20134;-63
2022/05/15 13:00:33;;;;;;;1.48;0.70;;;;;;;;;;4930652;28;20457;-63
2022/05/15 13:03:00;;;;;;;4.85;0.80;;;;;;;;;;4930539;28;20398;-62
2022/05/15 13:05:32;;;;;;;1.55;0.90;;;;;;;;;;4931130;28;20390;-62
2022/05/15 13:08:00;;;;;;;0.95;0.60;;;;;;;;;;4930852;28;20414;-63
2022/05/15 13:10:26;;;;;;;1.00;0.63;;;;;;;;;;4932288;28;20326;-63
2022/05/15 13:13:24;;;;;;;2.58;1.25;;;;;;;;;;4930709;28;20105;-67
2022/05/15 13:15:52;;;;;;;3.17;0.77;;;;;;;;;;4899109;28;20109;-63
2022/05/15 13:18:17;;;;;;;1.75;0.95;;;;;;;;;;4931423;28;20418;-62
2022/05/15 13:20:49;;;;;;;1.67;0.85;;;;;;;;;;4925570;28;20426;-62
2022/05/15 13:23:15;;;;;;;1.17;0.70;;;;;;;;;;4950201;28;20353;-63
2022/05/15 13:25:43;;;;;;;1.63;0.55;;;;;;;;;;4933259;28;20048;-62
2022/05/15 13:28:10;;;;;;;1.73;0.70;;;;;;;;;;4950254;28;20497;-62
2022/05/15 13:30:36;;;;;;;2.15;0.90;;;;;;;;;;4949932;28;20437;-63
2022/05/15 13:33:07;;;;;;;1.42;0.70;;;;;;;;;;4950851;28;20317;-62
2022/05/15 13:35:37;;;;;;;0.88;0.63;;;;;;;;;;4949832;28;20596;-62
2022/05/15 13:38:27;;;;;;;1.85;0.47;;;;;;;;;;4950459;28;20338;-63
2022/05/15 13:44:03;;;;;;;0.90;0.60;;;;;;;;;;4951991;28;20172;-61
2022/05/15 13:46:31;;;;;;;1.90;0.82;;;;;;;;;;4933104;28;20030;-62
2022/05/15 13:49:02;;;;;;;2.55;0.80;;;;;;;;;;4949244;28;20460;-62
2022/05/15 13:52:22;;;;;;;2.72;0.82;;;;;;;;;;4949591;28;20509;-63
2022/05/15 13:54:47;;;;;;;0.50;0.50;;;;;;;;;;4908180;28;20434;-62
2022/05/15 13:57:13;;;;;;;1.63;0.65;;;;;;;;;;4946088;28;20573;-62
2022/05/15 13:59:49;;;;;;;1.15;0.85;;;;;;;;;;4951450;28;20419;-61
2022/05/15 14:02:20;;;;;;;4.25;0.90;;;;;;;;;;4949759;28;20456;-63
2022/05/15 14:04:48;;;;;;;0.50;0.43;;;;;;;;;;4950813;28;20418;-61
2022/05/15 14:07:25;;;;;;;0.65;0.65;;;;;;;;;;4950015;28;20408;-62
2022/05/15 14:09:53;;;;;;;1.05;0.50;;;;;;;;;;4949630;28;20397;-63
2022/05/15 14:12:56;;;;;;;0.77;0.43;;;;;;;;;;4949343;28;20425;-63
2022/05/15 14:15:41;;;;;;;1.85;0.60;;;;;;;;;;4938917;28;20460;-62
2022/05/15 14:18:27;;;;;;;1.73;0.90;;;;;;;;;;4931823;28;20488;-62
2022/05/15 14:20:53;;;;;;;2.45;0.93;;;;;;;;;;4931167;28;20462;-62
2022/05/15 14:23:23;;;;;;;3.00;0.73;;;;;;;;;;4949907;28;20409;-61
2022/05/15 14:25:49;;;;;;;2.25;0.70;;;;;;;;;;4950076;28;20464;-62
2022/05/15 14:28:14;;;;;;;3.20;0.70;;;;;;;;;;4949642;28;20421;-63
2022/05/15 14:30:42;;;;;;;2.20;0.70;;;;;;;;;;4949484;28;20299;-62
2022/05/15 14:33:08;;;;;;;0.75;0.50;;;;;;;;;;4932184;28;20505;-62
2022/05/15 14:35:40;;;;;;;0.90;0.70;;;;;;;;;;4949711;28;20425;-62
2022/05/15 14:38:05;;;;;;;1.98;0.80;;;;;;;;;;4932127;28;20393;-61
2022/05/15 14:40:31;;;;;;;0.85;0.40;;;;;;;;;;4950348;28;20401;-62
2022/05/15 14:42:56;;;;;;;1.10;0.70;;;;;;;;;;4950432;28;20493;-62
2022/05/15 14:45:21;;;;;;;1.27;0.60;;;;;;;;;;4949514;28;20509;-61
2022/05/15 14:47:49;;;;;;;0.90;0.50;;;;;;;;;;4949338;28;20528;-62
2022/05/15 14:50:15;;;;;;;0.85;0.70;;;;;;;;;;4949645;28;20456;-61
2022/05/15 14:52:41;;;;;;;1.42;0.80;;;;;;;;;;4931435;28;20441;-62
2022/05/15 14:55:07;;;;;;;1.88;0.60;;;;;;;;;;4948960;28;20460;-62
2022/05/15 14:57:32;;;;;;;2.47;0.52;;;;;;;;;;4949876;28;20033;-62
2022/05/15 14:59:59;;;;;;;1.30;0.73;;;;;;;;;;4949585;28;20484;-62
2022/05/15 15:02:24;;;;;;;1.35;0.50;;;;;;;;;;4935167;28;20405;-63
2022/05/15 15:04:50;;;;;;;1.48;0.70;;;;;;;;;;4952309;28;20927;-62
2022/05/15 15:07:15;;;;;;;5.43;0.82;;;;;;;;;;4954249;28;20302;-63
2022/05/15 15:09:41;;;;;;;1.63;0.52;;;;;;;;;;4952077;28;20334;-64
2022/05/15 15:12:07;;;;;;;1.25;0.70;;;;;;;;;;4952423;28;20034;-62
2022/05/15 15:14:33;;;;;;;0.88;0.50;;;;;;;;;;4952777;28;20361;-62
2022/05/15 15:16:59;;;;;;;0.73;0.50;;;;;;;;;;4952461;28;20449;-64
2022/05/15 15:19:26;;;;;;;0.98;0.43;;;;;;;;;;4952019;28;20341;-62
2022/05/15 15:21:53;;;;;;;0.57;0.35;;;;;;;;;;4952271;28;20520;-63